Time;durP1;ratioP1;P1;durP2;ratioP2;P2;SDS_P1;SDS_P2;PMS_P1;PMS_P2;Temp;Humidity;BMP_temperature;BMP_pressure;BME280_temperature;BME280_humidity;BME280_pressure;Samples;Min_cycle;Max_cycle;Signal;HPM_P1;HPM_P2
2022/07/24 00:02:23;;;;;;;7.30;5.95;;;;;;;14.99;98.82;101849.06;4937638;28;20034;-68
2022/07/24 00:04:48;;;;;;;7.75;6.53;;;;;;;14.85;99.10;101825.00;4933639;28;20050;-67
2022/07/24 00:07:13;;;;;;;11.85;7.80;;;;;;;14.98;99.50;101841.09;4943433;28;20043;-68
2022/07/24 00:09:39;;;;;;;11.73;8.00;;;;;;;14.98;99.14;101847.34;4940829;28;20028;-68
2022/07/24 00:12:04;;;;;;;11.90;8.13;;;;;;;14.80;99.72;101819.09;4936343;28;20067;-68
2022/07/24 00:14:30;;;;;;;16.83;10.80;;;;;;;14.96;100.00;101845.75;4946003;28;20035;-68
2022/07/24 00:16:55;;;;;;;15.35;9.55;;;;;;;14.79;100.00;101806.56;4938625;28;20082;-68
2022/07/24 00:19:20;;;;;;;15.07;10.30;;;;;;;15.07;100.00;101839.47;4939029;28;20387;-67
2022/07/24 00:21:46;;;;;;;13.70;10.20;;;;;;;15.07;99.69;101837.66;4937480;28;20513;-68
2022/07/24 00:24:11;;;;;;;14.10;9.70;;;;;;;14.91;99.30;101815.53;4943364;28;20205;-68
2022/07/24 00:26:37;;;;;;;20.23;10.70;;;;;;;15.11;99.41;101844.50;4943849;28;20035;-68
2022/07/24 00:29:03;;;;;;;14.50;10.50;;;;;;;15.18;99.39;101844.00;4932981;28;20554;-68
2022/07/24 00:31:28;;;;;;;16.05;11.68;;;;;;;15.23;99.65;101841.78;4936994;28;20451;-68
2022/07/24 00:33:53;;;;;;;17.20;11.15;;;;;;;15.19;99.40;101843.91;4937488;28;20031;-67
2022/07/24 00:36:18;;;;;;;15.15;10.20;;;;;;;15.19;99.34;101845.72;4933560;28;20402;-68
2022/07/24 00:38:44;;;;;;;17.00;11.38;;;;;;;15.09;99.27;101819.44;4939384;28;20315;-68
2022/07/24 00:41:09;;;;;;;18.73;11.85;;;;;;;15.20;98.93;101840.22;4939417;28;20146;-68
2022/07/24 00:43:34;;;;;;;16.27;11.80;;;;;;;15.18;99.00;101841.31;4942863;28;20114;-68
2022/07/24 00:46:00;;;;;;;20.80;13.18;;;;;;;15.06;99.11;101824.22;4941950;28;20035;-68
2022/07/24 00:48:25;;;;;;;19.25;12.95;;;;;;;15.20;99.26;101845.63;4938004;28;20480;-68
2022/07/24 00:50:51;;;;;;;19.33;11.65;;;;;;;15.08;98.67;101830.38;4934152;28;20134;-68
2022/07/24 00:53:17;;;;;;;16.48;11.77;;;;;;;15.19;98.68;101840.31;4940714;28;20028;-67
2022/07/24 00:55:42;;;;;;;17.65;11.45;;;;;;;15.19;98.32;101848.44;4938190;28;20130;-68
2022/07/24 00:58:07;;;;;;;21.73;9.98;;;;;;;15.10;97.54;101844.66;4937535;28;20040;-68
2022/07/24 01:00:33;;;;;;;16.67;10.55;;;;;;;15.02;97.22;101844.41;4934710;28;20046;-68
2022/07/24 01:02:59;;;;;;;19.30;12.40;;;;;;;14.97;98.03;101842.06;4940630;28;20039;-68
2022/07/24 01:05:24;;;;;;;25.20;13.07;;;;;;;14.96;99.47;101838.50;4938686;28;20039;-68
2022/07/24 01:07:49;;;;;;;24.48;13.82;;;;;;;14.83;99.59;101821.56;4937379;28;20050;-68
2022/07/24 01:10:15;;;;;;;19.52;13.95;;;;;;;15.03;100.00;101843.41;4935281;28;20351;-68
2022/07/24 01:12:40;;;;;;;22.38;15.00;;;;;;;15.05;99.25;101841.44;4937088;28;20034;-68
2022/07/24 01:15:08;;;;;;;18.02;12.95;;;;;;;15.07;98.59;101843.06;4942933;28;20097;-68
2022/07/24 01:17:35;;;;;;;22.48;13.45;;;;;;;15.05;98.27;101836.03;4942364;28;20122;-67
2022/07/24 01:20:00;;;;;;;21.92;12.68;;;;;;;14.80;98.09;101810.97;4938829;28;20167;-68
2022/07/24 01:22:27;;;;;;;16.20;12.23;;;;;;;14.93;98.67;101829.78;4938265;28;20070;-68
2022/07/24 01:24:53;;;;;;;18.83;12.27;;;;;;;14.95;98.03;101827.81;4936665;28;20110;-68
2022/07/24 01:27:19;;;;;;;21.85;13.52;;;;;;;14.98;98.39;101835.69;4946257;28;20134;-68
2022/07/24 01:29:44;;;;;;;21.58;13.93;;;;;;;15.03;98.62;101824.47;4939148;28;20106;-67
2022/07/24 01:32:10;;;;;;;27.10;15.18;;;;;;;15.00;98.75;101812.09;4936497;28;20075;-67
2022/07/24 01:34:35;;;;;;;25.40;14.90;;;;;;;15.11;98.34;101820.16;4938348;28;20083;-68
2022/07/24 01:37:01;;;;;;;24.65;15.77;;;;;;;15.11;98.74;101817.44;4940863;28;20055;-67
2022/07/24 01:39:26;;;;;;;24.05;15.63;;;;;;;15.06;99.18;101813.41;4929650;28;20024;-68
2022/07/24 01:41:52;;;;;;;24.77;16.00;;;;;;;15.02;99.56;101810.13;4936824;28;20042;-67
2022/07/24 01:44:17;;;;;;;22.05;15.15;;;;;;;15.00;99.55;101812.94;4939294;28;20148;-67
2022/07/24 01:46:42;;;;;;;21.08;14.93;;;;;;;15.00;99.41;101814.78;4935772;28;20027;-67
2022/07/24 01:49:08;;;;;;;24.35;14.88;;;;;;;14.99;99.37;101808.50;4936209;28;20403;-68
2022/07/24 01:51:33;;;;;;;23.13;14.70;;;;;;;14.99;98.82;101804.94;4937251;28;20489;-68
2022/07/24 01:53:59;;;;;;;23.40;15.55;;;;;;;15.00;98.93;101802.09;4933837;28;20555;-68
2022/07/24 01:56:24;;;;;;;23.65;15.52;;;;;;;15.00;98.56;101796.69;4939142;28;20035;-68
2022/07/24 01:58:49;;;;;;;21.70;14.38;;;;;;;15.02;98.17;101806.53;4933609;28;20066;-67
2022/07/24 02:01:15;;;;;;;25.25;15.65;;;;;;;15.08;98.46;101809.63;4939061;28;20024;-67
2022/07/24 02:03:40;;;;;;;22.38;15.23;;;;;;;15.05;98.24;101792.75;4939707;28;20066;-68
2022/07/24 02:06:06;;;;;;;26.33;15.52;;;;;;;14.95;97.52;101782.72;4936083;28;20054;-68
2022/07/24 02:08:31;;;;;;;22.77;15.02;;;;;;;15.11;97.63;101803.94;4941465;28;20498;-68
2022/07/24 02:10:56;;;;;;;27.73;15.80;;;;;;;15.11;97.43;101800.38;4932974;28;20039;-68
2022/07/24 02:13:22;;;;;;;25.95;15.23;;;;;;;15.06;98.01;101794.47;4940624;28;20038;-68
2022/07/24 02:15:47;;;;;;;24.35;15.07;;;;;;;14.83;97.39;101767.47;4939932;28;20023;-68
2022/07/24 02:18:12;;;;;;;23.00;14.70;;;;;;;14.94;97.95;101794.53;4938514;28;20037;-68
2022/07/24 02:20:38;;;;;;;21.80;14.88;;;;;;;14.88;97.84;101795.00;4938698;28;20379;-68
2022/07/24 02:23:03;;;;;;;25.08;15.98;;;;;;;14.86;98.15;101783.47;4945790;28;20044;-68
2022/07/24 02:25:29;;;;;;;24.65;15.60;;;;;;;14.89;97.67;101783.22;4943276;28;20027;-68
2022/07/24 02:27:54;;;;;;;25.95;16.92;;;;;;;14.95;97.91;101787.25;4944848;28;20563;-68
2022/07/24 02:30:21;;;;;;;27.40;16.92;;;;;;;15.01;97.66;101792.16;4942781;28;20036;-68
2022/07/24 02:32:47;;;;;;;25.35;15.85;;;;;;;14.98;97.61;101798.66;4946826;28;20128;-67
2022/07/24 02:35:12;;;;;;;24.80;15.02;;;;;;;14.98;97.33;101792.41;4938033;28;20047;-68
2022/07/24 02:37:40;;;;;;;26.50;15.43;;;;;;;15.00;97.58;101791.28;4939609;28;20029;-68
2022/07/24 02:40:07;;;;;;;24.80;16.42;;;;;;;14.98;97.46;101790.56;4940238;28;20359;-68
2022/07/24 02:42:33;;;;;;;24.00;15.70;;;;;;;14.95;97.55;101796.25;4935828;28;20036;-67
2022/07/24 02:44:58;;;;;;;31.13;18.42;;;;;;;14.97;98.16;101785.28;4938445;28;20082;-67
2022/07/24 02:47:24;;;;;;;32.88;18.40;;;;;;;15.13;97.12;101795.72;4939377;28;20020;-68
2022/07/24 02:49:49;;;;;;;32.47;18.95;;;;;;;15.22;95.99;101792.25;4938922;28;20039;-67
2022/07/24 02:52:14;;;;;;;30.15;17.02;;;;;;;15.26;95.13;101799.09;4936342;28;20035;-67
2022/07/24 02:54:40;;;;;;;30.45;17.88;;;;;;;15.36;95.09;101801.91;4938228;28;20070;-67
2022/07/24 02:57:05;;;;;;;28.70;16.80;;;;;;;15.46;94.59;101799.31;4939456;28;20035;-67
2022/07/24 02:59:31;;;;;;;31.08;17.27;;;;;;;15.49;94.89;101801.78;4941317;28;20081;-67
2022/07/24 03:01:56;;;;;;;24.63;15.05;;;;;;;15.47;94.78;101797.44;4932331;28;20055;-67
2022/07/24 03:04:22;;;;;;;25.33;15.38;;;;;;;15.42;95.47;101800.56;4943350;28;20793;-67
2022/07/24 03:06:47;;;;;;;24.92;15.90;;;;;;;15.39;95.20;101798.09;4944123;28;20031;-67
2022/07/24 03:09:12;;;;;;;26.00;16.67;;;;;;;15.39;95.04;101792.69;4938343;28;20677;-68
2022/07/24 03:11:38;;;;;;;24.02;15.95;;;;;;;15.36;95.22;101796.50;4938091;28;20115;-67
2022/07/24 03:14:03;;;;;;;25.85;16.83;;;;;;;15.33;95.20;101790.50;4940019;28;20499;-67
2022/07/24 03:16:28;;;;;;;28.42;17.38;;;;;;;15.28;95.32;101791.72;4939286;28;20068;-67
2022/07/24 03:18:54;;;;;;;30.75;17.50;;;;;;;15.27;95.33;101797.28;4938108;28;20078;-67
2022/07/24 03:21:19;;;;;;;30.65;17.88;;;;;;;15.14;95.17;101786.59;4943290;28;20094;-66
2022/07/24 03:23:44;;;;;;;29.80;17.50;;;;;;;15.17;96.08;101785.47;4943714;28;20862;-67
2022/07/24 03:26:10;;;;;;;24.60;16.38;;;;;;;15.11;96.21;101793.13;4949501;28;20098;-66
2022/07/24 03:28:35;;;;;;;27.33;17.70;;;;;;;15.06;96.45;101786.38;4940631;28;20539;-67
2022/07/24 03:31:00;;;;;;;31.30;17.58;;;;;;;15.03;97.41;101783.91;4940615;28;20446;-67
2022/07/24 03:33:27;;;;;;;27.92;17.75;;;;;;;15.08;96.78;101777.16;4938283;28;20073;-67
2022/07/24 03:35:52;;;;;;;33.10;18.10;;;;;;;15.19;96.21;101789.81;4935186;28;20791;-67
2022/07/24 03:38:18;;;;;;;25.25;16.48;;;;;;;15.18;95.88;101790.78;4937516;28;20136;-67
2022/07/24 03:40:43;;;;;;;27.50;16.08;;;;;;;15.12;95.72;101789.44;4935127;28;20488;-66
2022/07/24 03:43:08;;;;;;;24.02;16.38;;;;;;;15.00;96.27;101788.59;4938232;28;20040;-67
2022/07/24 03:45:33;;;;;;;26.30;15.80;;;;;;;14.86;96.34;101786.16;4938599;28;20066;-67
2022/07/24 03:47:59;;;;;;;24.38;15.90;;;;;;;14.54;97.94;101760.72;4939011;28;20073;-67
2022/07/24 03:50:24;;;;;;;29.88;18.35;;;;;;;14.52;98.51;101778.91;4934294;28;20098;-66
2022/07/24 03:52:50;;;;;;;30.60;18.17;;;;;;;14.59;99.95;101772.97;4938726;28;20027;-67
2022/07/24 03:55:15;;;;;;;31.08;19.45;;;;;;;14.65;100.00;101770.66;4937460;28;20039;-67
2022/07/24 03:57:41;;;;;;;30.05;18.33;;;;;;;14.72;100.00;101781.00;4936936;28;20073;-66
2022/07/24 04:00:08;;;;;;;34.58;19.00;;;;;;;14.66;100.00;101772.41;4935973;28;20480;-66
2022/07/24 04:02:33;;;;;;;31.65;18.27;;;;;;;14.73;100.00;101785.41;4939995;28;20063;-67
2022/07/24 04:04:58;;;;;;;34.65;19.05;;;;;;;14.72;100.00;101779.16;4939328;28;20074;-67
2022/07/24 04:07:24;;;;;;;31.92;18.92;;;;;;;14.76;100.00;101785.19;4936640;28;20423;-66
2022/07/24 04:09:49;;;;;;;28.65;18.83;;;;;;;14.79;100.00;101783.09;4938344;28;20034;-66
2022/07/24 04:12:14;;;;;;;29.95;18.77;;;;;;;14.82;99.67;101781.97;4934526;28;20059;-67
2022/07/24 04:14:40;;;;;;;30.42;17.75;;;;;;;14.81;100.00;101782.97;4941747;28;20037;-66
2022/07/24 04:17:05;;;;;;;31.63;19.10;;;;;;;14.89;99.85;101787.75;4936524;28;20436;-66
2022/07/24 04:19:31;;;;;;;30.02;18.83;;;;;;;14.90;100.00;101784.94;4938016;28;20287;-66
2022/07/24 04:21:56;;;;;;;30.15;18.27;;;;;;;14.95;100.00;101780.03;4943095;28;20081;-67
2022/07/24 04:24:22;;;;;;;35.20;18.38;;;;;;;15.04;99.75;101785.63;4940111;28;20027;-66
2022/07/24 04:26:47;;;;;;;30.27;18.48;;;;;;;15.03;99.61;101768.56;4947133;28;20073;-67
2022/07/24 04:29:13;;;;;;;30.17;19.10;;;;;;;15.10;99.35;101767.06;4939104;28;20032;-67
2022/07/24 04:31:38;;;;;;;35.17;19.08;;;;;;;15.24;98.75;101778.59;4939431;28;20145;-67
2022/07/24 04:34:03;;;;;;;31.45;18.90;;;;;;;15.29;98.60;101790.75;4939714;28;20039;-67
2022/07/24 04:36:29;;;;;;;26.08;17.60;;;;;;;15.25;98.47;101780.31;4944454;28;21636;-67
2022/07/24 04:38:54;;;;;;;28.95;17.55;;;;;;;15.30;99.05;101797.88;4940505;28;20046;-67
2022/07/24 04:41:20;;;;;;;28.77;17.65;;;;;;;15.28;99.35;101802.53;4937328;28;20119;-67
2022/07/24 04:43:45;;;;;;;28.10;17.33;;;;;;;15.28;99.66;101801.69;4940662;28;20059;-66
2022/07/24 04:46:10;;;;;;;26.15;16.73;;;;;;;15.28;99.57;101802.53;4939385;28;20035;-67
2022/07/24 04:48:36;;;;;;;28.25;17.40;;;;;;;15.25;99.52;101796.53;4936908;28;20064;-67
2022/07/24 04:51:01;;;;;;;28.45;17.52;;;;;;;15.34;99.06;101812.03;4935877;28;20122;-67
2022/07/24 04:53:26;;;;;;;28.13;17.70;;;;;;;15.28;99.75;101804.41;4937262;28;20027;-67
2022/07/24 04:55:52;;;;;;;33.88;19.17;;;;;;;15.29;100.00;101808.84;4935120;28;20122;-67
2022/07/24 04:58:17;;;;;;;31.38;19.33;;;;;;;15.32;100.00;101819.41;4934502;28;20031;-67
2022/07/24 05:00:42;;;;;;;38.42;22.52;;;;;;;15.11;100.00;101793.13;4933186;28;20035;-67
2022/07/24 05:03:08;;;;;;;35.80;20.60;;;;;;;15.31;100.00;101812.28;4937180;28;20066;-67
2022/07/24 05:05:33;;;;;;;39.78;23.30;;;;;;;15.40;100.00;101802.53;4940159;28;20138;-66
2022/07/24 05:07:58;;;;;;;35.22;22.90;;;;;;;15.45;100.00;101803.00;4938359;28;20032;-66
2022/07/24 05:10:24;;;;;;;42.65;24.45;;;;;;;15.43;100.00;101789.59;4938623;28;20039;-67
2022/07/24 05:12:49;;;;;;;39.22;24.77;;;;;;;15.55;100.00;101813.91;4935905;28;20031;-66
2022/07/24 05:15:14;;;;;;;46.28;28.02;;;;;;;15.69;100.00;101804.63;4938087;28;20031;-66
2022/07/24 05:17:40;;;;;;;44.05;26.98;;;;;;;15.75;100.00;101798.72;4938766;28;20089;-66
2022/07/24 05:20:06;;;;;;;42.05;27.13;;;;;;;15.80;100.00;101793.75;4936979;28;20415;-66
2022/07/24 05:22:31;;;;;;;50.95;30.00;;;;;;;15.95;100.00;101794.31;4939828;28;20816;-66
2022/07/24 05:24:59;;;;;;;50.63;29.92;;;;;;;16.06;100.00;101800.66;4940533;28;20039;-66
2022/07/24 05:27:25;;;;;;;46.67;28.85;;;;;;;16.14;100.00;101804.44;4937288;28;20070;-66
2022/07/24 05:29:50;;;;;;;50.25;29.17;;;;;;;16.08;100.00;101785.16;4938517;28;20150;-66
2022/07/24 05:32:15;;;;;;;55.55;29.20;;;;;;;16.08;100.00;101772.44;4933933;28;20032;-66
2022/07/24 05:34:41;;;;;;;54.03;32.92;;;;;;;16.38;100.00;101792.44;4935497;28;20093;-66
2022/07/24 05:37:07;;;;;;;52.25;31.45;;;;;;;16.34;100.00;101775.59;4936057;28;20039;-66
2022/07/24 05:39:32;;;;;;;52.58;31.02;;;;;;;16.58;100.00;101796.13;4934182;28;20470;-66
2022/07/24 05:41:58;;;;;;;50.60;31.17;;;;;;;16.60;100.00;101798.69;4938815;28;20122;-66
2022/07/24 05:44:23;;;;;;;57.17;31.88;;;;;;;16.87;100.00;101803.50;4937153;28;20229;-66
2022/07/24 05:46:48;;;;;;;55.65;30.77;;;;;;;16.89;100.00;101806.06;4941626;28;20031;-66
2022/07/24 05:49:14;;;;;;;59.33;32.33;;;;;;;16.94;99.47;101811.94;4934323;28;20115;-66
2022/07/24 05:51:39;;;;;;;53.90;30.80;;;;;;;17.13;97.20;101804.88;4942485;28;20451;-66
2022/07/24 05:54:04;;;;;;;50.00;31.45;;;;;;;17.18;97.72;101803.50;4940919;28;20395;-66
2022/07/24 05:56:30;;;;;;;58.17;30.90;;;;;;;17.33;96.84;101809.38;4941617;28;20134;-66
2022/07/24 05:58:55;;;;;;;60.60;32.58;;;;;;;17.38;96.05;101811.66;4939696;28;20495;-66
2022/07/24 06:01:21;;;;;;;64.03;33.72;;;;;;;17.55;95.38;101820.97;4941084;28;21517;-66
2022/07/24 06:03:46;;;;;;;56.85;31.98;;;;;;;17.64;96.81;101819.25;4944203;28;20035;-66
2022/07/24 06:06:11;;;;;;;58.30;31.13;;;;;;;17.69;97.37;101820.53;4939900;28;20055;-66
2022/07/24 06:08:37;;;;;;;65.95;31.20;;;;;;;17.92;95.67;101822.09;4942413;28;20503;-66
2022/07/24 06:11:02;;;;;;;61.90;33.58;;;;;;;17.97;94.92;101826.09;4941204;28;20270;-66
2022/07/24 06:13:27;;;;;;;64.88;34.42;;;;;;;18.01;95.97;101844.88;4944913;28;20035;-66
2022/07/24 06:15:53;;;;;;;72.07;35.58;;;;;;;18.12;95.96;101834.69;4941268;28;20526;-66
2022/07/24 06:18:18;;;;;;;68.50;34.50;;;;;;;18.12;94.64;101809.41;4940877;28;20118;-66
2022/07/24 06:20:44;;;;;;;65.13;34.10;;;;;;;18.36;95.31;101829.81;4945561;28;20027;-66
2022/07/24 06:23:09;;;;;;;64.63;35.15;;;;;;;18.43;94.40;101822.75;4941536;28;20035;-66
2022/07/24 06:25:34;;;;;;;67.07;35.88;;;;;;;18.51;92.41;101836.47;4945679;28;20131;-66
2022/07/24 06:28:00;;;;;;;67.90;33.05;;;;;;;18.76;94.54;101838.69;4947022;28;20110;-66
2022/07/24 06:30:27;;;;;;;67.32;33.85;;;;;;;18.60;90.64;101791.22;4948542;28;20118;-66
2022/07/24 06:32:54;;;;;;;67.97;34.17;;;;;;;18.89;90.34;101825.59;4946941;28;20548;-66
2022/07/24 06:35:19;;;;;;;57.72;33.22;;;;;;;18.96;90.13;101824.03;4949429;28;20066;-66
2022/07/24 06:37:45;;;;;;;58.67;31.65;;;;;;;19.23;91.62;101835.03;4942689;28;20031;-66
2022/07/24 06:40:11;;;;;;;61.17;33.38;;;;;;;19.34;87.95;101834.84;4947201;28;20065;-66
2022/07/24 06:42:36;;;;;;;65.60;34.88;;;;;;;19.38;87.78;101822.63;4940845;28;20487;-66
2022/07/24 06:45:03;;;;;;;65.57;35.13;;;;;;;19.49;88.64;101822.38;4941578;28;20035;-66
2022/07/24 06:47:28;;;;;;;68.30;35.55;;;;;;;19.48;87.76;101820.66;4945722;28;20053;-66
2022/07/24 06:49:53;;;;;;;70.18;35.80;;;;;;;19.56;87.90;101816.31;4943481;28;20035;-66
2022/07/24 06:52:19;;;;;;;60.17;33.55;;;;;;;19.53;85.23;101827.53;4942599;28;20046;-67
2022/07/24 06:54:44;;;;;;;58.03;31.92;;;;;;;19.69;84.12;101832.28;4946538;28;20034;-67
2022/07/24 06:57:10;;;;;;;65.75;32.92;;;;;;;19.76;84.19;101827.94;4945685;28;20031;-66
2022/07/24 06:59:35;;;;;;;64.85;32.42;;;;;;;19.85;84.70;101828.84;4942067;28;20031;-66
2022/07/24 07:02:00;;;;;;;53.53;29.85;;;;;;;19.95;84.20;101823.34;4938608;28;20443;-66
2022/07/24 07:04:25;;;;;;;56.75;31.52;;;;;;;20.00;83.97;101826.47;4939551;28;20543;-68
2022/07/24 07:06:51;;;;;;;59.40;30.70;;;;;;;20.19;85.21;101819.97;4938376;28;20110;-66
2022/07/24 07:09:16;;;;;;;53.45;32.47;;;;;;;20.30;81.80;101816.97;4940583;28;20033;-71
2022/07/24 07:11:41;;;;;;;53.47;30.65;;;;;;;20.29;81.82;101826.16;4943669;28;20038;-67
2022/07/24 07:14:07;;;;;;;57.03;32.25;;;;;;;20.43;80.09;101821.97;4940330;28;20031;-72
2022/07/24 07:16:32;;;;;;;49.67;27.23;;;;;;;20.57;81.10;101825.16;4948023;28;20027;-68
2022/07/24 07:18:57;;;;;;;47.35;29.75;;;;;;;20.48;76.69;101807.88;4943430;28;20478;-73
2022/07/24 07:21:23;;;;;;;52.97;28.98;;;;;;;20.62;76.71;101804.53;4939457;28;20039;-70
2022/07/24 07:23:48;;;;;;;44.08;24.80;;;;;;;20.65;76.84;101809.69;4926716;28;20438;-67
2022/07/24 07:26:13;;;;;;;41.90;23.35;;;;;;;20.84;75.37;101813.19;4940248;28;20501;-69
2022/07/24 07:28:39;;;;;;;39.60;23.05;;;;;;;20.87;71.58;101812.88;4940944;28;20447;-67
2022/07/24 07:31:04;;;;;;;33.35;20.48;;;;;;;21.13;72.37;101817.41;4935639;28;20546;-70
2022/07/24 07:33:29;;;;;;;36.80;19.70;;;;;;;;;;4939368;28;20063;-69
2022/07/24 07:35:55;;;;;;;37.60;19.23;;;;;;;21.24;72.37;101835.34;4942211;28;20119;-68
2022/07/24 07:38:20;;;;;;;27.48;15.18;;;;;;;21.47;69.92;101832.84;4939399;28;20372;-66
2022/07/24 07:40:45;;;;;;;23.83;15.88;;;;;;;21.48;66.84;101820.03;4940222;28;20031;-67
2022/07/24 07:43:11;;;;;;;26.77;15.45;;;;;;;21.55;65.37;101826.53;4940013;28;20058;-68
2022/07/24 07:45:36;;;;;;;20.33;11.57;;;;;;;21.63;66.26;101812.06;4935204;28;20078;-67
2022/07/24 07:48:02;;;;;;;21.30;11.55;;;;;;;21.85;65.72;101829.69;4944174;28;20458;-66
2022/07/24 07:50:27;;;;;;;18.75;11.40;;;;;;;21.84;63.89;101831.56;4936370;28;20039;-66
2022/07/24 07:52:53;;;;;;;15.32;10.50;;;;;;;22.05;65.54;101822.00;4938604;28;20106;-69
2022/07/24 07:55:18;;;;;;;16.27;10.50;;;;;;;22.08;64.15;101821.66;4942072;28;20031;-66
2022/07/24 07:57:43;;;;;;;14.10;8.75;;;;;;;22.21;62.09;101821.13;4944104;28;20038;-66
2022/07/24 08:00:11;;;;;;;13.75;9.43;;;;;;;22.40;59.70;101819.03;4936646;28;20447;-69
2022/07/24 08:02:36;;;;;;;16.20;9.02;;;;;;;22.02;60.03;101784.06;4949159;28;20081;-70
2022/07/24 08:05:01;;;;;;;12.70;8.52;;;;;;;22.13;57.78;101805.56;4940332;28;20121;-75
2022/07/24 08:07:27;;;;;;;11.65;7.88;;;;;;;22.30;58.01;101811.03;4936249;28;20459;-75
2022/07/24 08:09:52;;;;;;;11.07;7.45;;;;;;;22.17;57.49;101809.66;4934218;28;20150;-69
2022/07/24 08:12:17;;;;;;;10.25;7.28;;;;;;;22.27;55.93;101808.63;4937372;28;20032;-68
2022/07/24 08:14:43;;;;;;;8.63;7.38;;;;;;;22.22;57.03;101800.97;4935614;28;20050;-69
2022/07/24 08:17:08;;;;;;;10.38;7.85;;;;;;;22.34;56.90;101779.56;4942183;28;20122;-71
2022/07/24 08:19:33;;;;;;;8.95;6.80;;;;;;;22.62;58.37;101803.81;4943189;28;20102;-68
2022/07/24 08:21:59;;;;;;;9.18;6.32;;;;;;;22.81;57.66;101799.78;4938515;28;20035;-67
2022/07/24 08:24:24;;;;;;;12.20;7.63;;;;;;;22.87;60.83;101807.28;4940244;28;20035;-70
2022/07/24 08:26:49;;;;;;;10.15;6.85;;;;;;;22.94;59.47;101798.34;4936113;28;20487;-69
2022/07/24 08:29:16;;;;;;;16.38;6.78;;;;;;;23.24;57.43;101812.28;4936089;28;20034;-73
2022/07/24 08:31:41;;;;;;;8.52;5.90;;;;;;;23.27;57.35;101820.97;4939625;28;20045;-67
2022/07/24 08:34:06;;;;;;;10.05;6.93;;;;;;;23.38;57.85;101814.22;4943898;28;20455;-70
2022/07/24 08:36:32;;;;;;;6.65;5.30;;;;;;;23.51;58.17;101810.88;4941300;28;20030;-67
2022/07/24 08:38:57;;;;;;;5.22;4.72;;;;;;;23.41;56.93;101811.13;4935805;28;20023;-73
2022/07/24 08:41:23;;;;;;;9.38;4.93;;;;;;;23.54;57.19;101804.22;4935417;28;20020;-68
2022/07/24 08:43:48;;;;;;;7.05;4.65;;;;;;;23.45;55.58;101804.25;4940209;28;20032;-69
2022/07/24 08:46:14;;;;;;;18.50;5.85;;;;;;;23.37;53.20;101818.00;4946185;28;20118;-70
2022/07/24 08:48:44;;;;;;;4.90;4.40;;;;;;;23.42;53.95;101806.50;4943908;28;20036;-68
2022/07/24 08:51:13;;;;;;;6.95;5.78;;;;;;;23.65;56.66;101803.75;4944591;28;20051;-72
2022/07/24 08:53:39;;;;;;;8.70;4.80;;;;;;;23.68;54.71;101806.13;4938973;28;20047;-74
2022/07/24 08:56:05;;;;;;;5.15;4.30;;;;;;;23.65;57.11;101798.28;4940108;28;20035;-73
2022/07/24 08:58:30;;;;;;;7.18;4.50;;;;;;;23.94;57.32;101802.16;4928913;28;20042;-67
2022/07/24 09:00:55;;;;;;;5.38;4.20;;;;;;;24.04;53.32;101800.03;4948840;28;20035;-71
2022/07/24 09:03:21;;;;;;;6.90;4.45;;;;;;;23.96;53.41;101803.69;4950389;28;20038;-72
2022/07/24 09:05:58;;;;;;;6.50;4.63;;;;;;;23.95;51.36;101799.25;4945191;28;20432;-71
2022/07/24 09:08:23;;;;;;;4.88;4.47;;;;;;;23.99;52.46;101790.66;4953258;28;20261;-68
2022/07/24 09:10:55;;;;;;;4.43;4.03;;;;;;;24.15;55.49;101793.25;4938454;28;20093;-72
2022/07/24 09:13:24;;;;;;;3.92;3.50;;;;;;;24.05;55.74;101789.91;4925812;29;20027;-67
2022/07/24 09:15:49;;;;;;;4.82;3.40;;;;;;;24.31;52.63;101796.84;4942637;28;20039;-67
2022/07/24 09:18:26;;;;;;;4.25;3.10;;;;;;;24.39;54.76;101794.03;4939391;28;20038;-66
2022/07/24 09:20:51;;;;;;;4.18;3.50;;;;;;;24.58;52.19;101786.25;4935570;28;20055;-66
2022/07/24 09:23:19;;;;;;;4.50;3.97;;;;;;;24.79;52.25;101780.03;4939460;28;20411;-68
2022/07/24 09:25:51;;;;;;;10.23;3.97;;;;;;;24.65;54.18;101785.31;4942538;28;20035;-70
2022/07/24 09:28:16;;;;;;;6.43;3.78;;;;;;;24.81;52.23;101777.94;4940518;28;20035;-67
2022/07/24 09:30:43;;;;;;;3.58;3.20;;;;;;;24.60;53.13;101779.56;4944652;28;20024;-68
2022/07/24 09:33:11;;;;;;;3.50;3.20;;;;;;;24.62;53.80;101777.47;4940291;28;21903;-68
2022/07/24 09:35:47;;;;;;;3.10;2.80;;;;;;;24.74;52.24;101779.75;4940509;28;20031;-67
2022/07/24 09:38:15;;;;;;;2.88;2.67;;;;;;;24.81;54.16;101778.78;4942661;28;20427;-68
2022/07/24 09:40:45;;;;;;;3.83;3.50;;;;;;;24.67;49.06;101783.22;4949084;28;20390;-67
2022/07/24 09:43:16;;;;;;;5.45;3.33;;;;;;;24.72;51.98;101768.97;4939137;28;20031;-68
2022/07/24 09:45:51;;;;;;;3.75;3.45;;;;;;;25.00;50.24;101771.00;4944413;28;20027;-68
2022/07/24 09:48:18;;;;;;;3.67;3.38;;;;;;;24.88;53.72;101769.78;4941815;28;20046;-68
2022/07/24 09:50:51;;;;;;;3.40;3.10;;;;;;;24.89;51.62;101775.09;4936306;28;20038;-68
2022/07/24 09:53:18;;;;;;;3.78;3.38;;;;;;;24.94;56.69;101760.78;4943744;28;20027;-66
2022/07/24 09:55:43;;;;;;;3.22;3.03;;;;;;;25.05;51.56;101764.91;4939057;28;20023;-68
2022/07/24 09:58:17;;;;;;;4.18;3.10;;;;;;;24.98;50.29;101759.34;4943753;28;20039;-69
2022/07/24 10:00:42;;;;;;;4.35;2.70;;;;;;;25.45;50.40;101749.72;4943722;28;20444;-67
2022/07/24 10:03:14;;;;;;;4.10;3.00;;;;;;;25.99;49.23;101772.19;4948455;28;20037;-67
2022/07/24 10:05:43;;;;;;;3.90;3.05;;;;;;;25.87;49.01;101760.88;4943180;28;20030;-67
2022/07/24 10:08:11;;;;;;;3.95;3.10;;;;;;;25.61;53.33;101756.00;4942928;28;20608;-71
2022/07/24 10:10:37;;;;;;;3.30;2.92;;;;;;;25.56;51.76;101748.34;4942581;28;20038;-68
2022/07/24 10:13:04;;;;;;;3.53;3.15;;;;;;;25.42;52.94;101735.50;4940923;28;20030;-71
2022/07/24 10:15:33;;;;;;;5.13;2.83;;;;;;;25.36;48.55;101748.13;4941097;28;20117;-68
2022/07/24 10:18:14;;;;;;;2.97;2.67;;;;;;;25.58;52.18;101746.25;4940159;28;20154;-68
2022/07/24 10:20:41;;;;;;;3.70;3.40;;;;;;;25.48;50.05;101751.22;4943251;28;20142;-68
2022/07/24 10:23:07;;;;;;;3.80;2.88;;;;;;;25.47;51.25;101733.03;4940659;28;20138;-71
2022/07/24 10:25:57;;;;;;;2.85;2.65;;;;;;;25.62;52.19;101729.38;4939307;28;20078;-73
2022/07/24 10:28:37;;;;;;;3.22;2.92;;;;;;;26.00;50.44;101740.00;4937870;28;20117;-69
2022/07/24 10:31:05;;;;;;;4.57;3.00;;;;;;;26.35;51.50;101735.38;4941650;28;20046;-67
2022/07/24 10:33:30;;;;;;;3.63;2.70;;;;;;;26.78;49.00;101727.97;4939782;28;22293;-68
2022/07/24 10:35:58;;;;;;;4.82;3.42;;;;;;;26.79;48.73;101715.91;4945082;28;20063;-70
2022/07/24 10:38:29;;;;;;;4.28;3.53;;;;;;;26.45;51.38;101739.69;4940931;28;20135;-69
2022/07/24 10:41:01;;;;;;;4.20;3.10;;;;;;;26.87;48.23;101736.94;4940559;28;20050;-68
2022/07/24 10:43:27;;;;;;;5.18;3.28;;;;;;;26.91;49.77;101724.44;4936458;28;20095;-68
2022/07/24 10:45:55;;;;;;;4.45;2.92;;;;;;;27.64;47.74;101731.16;4940142;28;20031;-67
2022/07/24 10:48:20;;;;;;;4.70;3.00;;;;;;;27.63;46.52;101726.69;4940568;28;20046;-68
2022/07/24 10:51:02;;;;;;;3.23;2.93;;;;;;;27.36;47.28;101726.66;4938465;28;20031;-69
2022/07/24 10:53:30;;;;;;;3.38;3.08;;;;;;;27.09;46.26;101710.06;4936173;28;20039;-71
2022/07/24 10:56:24;;;;;;;2.92;2.65;;;;;;;27.87;47.25;101724.34;4943001;28;20035;-67
2022/07/24 10:59:09;;;;;;;4.20;3.08;;;;;;;27.16;45.65;101718.34;4935221;28;20040;-68
2022/07/24 11:01:37;;;;;;;3.15;2.85;;;;;;;27.71;47.62;101717.34;4937726;28;20028;-67
2022/07/24 11:04:22;;;;;;;2.95;2.60;;;;;;;27.79;48.08;101722.66;4936142;28;20110;-68
2022/07/24 11:06:54;;;;;;;3.35;3.05;;;;;;;27.83;47.56;101722.00;4936868;28;20123;-67
2022/07/24 11:09:24;;;;;;;3.80;2.65;;;;;;;27.86;48.55;101709.69;4942847;28;20035;-68
2022/07/24 11:11:52;;;;;;;6.53;3.17;;;;;;;27.66;46.60;101706.97;4936704;28;20115;-70